Time;durP1;ratioP1;P1;durP2;ratioP2;P2;SDS_P1;SDS_P2;PMS_P1;PMS_P2;Temp;Humidity;BMP_temperature;BMP_pressure;BME280_temperature;BME280_humidity;BME280_pressure;Samples;Min_cycle;Max_cycle;Signal;HPM_P1;HPM_P2
2023/12/16 00:01:11;;;;;;;6.77;3.13;;;;;;;;;;5060496;27;90121;-72
2023/12/16 00:03:39;;;;;;;3.73;2.43;;;;;;;;;;5061114;27;89878;-73
2023/12/16 00:06:09;;;;;;;5.03;2.47;;;;;;;;;;5060984;27;87638;-74
2023/12/16 00:08:38;;;;;;;4.80;2.23;;;;;;;;;;5060314;27;89844;-74
2023/12/16 00:11:06;;;;;;;6.50;2.90;;;;;;;;;;5060609;27;89106;-74
2023/12/16 00:13:36;;;;;;;3.17;2.40;;;;;;;;;;5059897;27;88954;-75
2023/12/16 00:16:07;;;;;;;3.10;2.33;;;;;;;;;;5061182;27;87508;-75
2023/12/16 00:18:37;;;;;;;3.30;2.53;;;;;;;;;;5060175;27;89683;-75
2023/12/16 00:21:07;;;;;;;2.73;2.40;;;;;;;;;;5060374;27;89012;-73
2023/12/16 00:23:37;;;;;;;4.90;2.63;;;;;;;;;;5061405;27;88859;-73
2023/12/16 00:26:06;;;;;;;4.90;2.60;;;;;;;;;;5060908;27;87877;-73
2023/12/16 00:28:35;;;;;;;3.33;2.47;;;;;;;;;;5059638;27;90018;-73
2023/12/16 00:31:06;;;;;;;2.53;1.77;;;;;;;;;;5060568;27;89118;-72
2023/12/16 00:33:35;;;;;;;6.67;2.07;;;;;;;;;;5060544;27;88990;-72
2023/12/16 00:36:03;;;;;;;5.77;2.53;;;;;;;;;;5060597;27;87716;-72
2023/12/16 00:38:31;;;;;;;3.53;2.17;;;;;;;;;;5040531;28;88809;-72
2023/12/16 00:41:01;;;;;;;4.40;2.83;;;;;;;;;;5040221;28;89041;-72
2023/12/16 00:43:30;;;;;;;3.83;1.93;;;;;;;;;;5055094;27;88816;-72
2023/12/16 00:45:58;;;;;;;4.93;1.90;;;;;;;;;;5060544;27;87739;-72
2023/12/16 00:48:26;;;;;;;2.07;1.60;;;;;;;;;;5060300;27;89431;-73
2023/12/16 00:50:56;;;;;;;2.23;1.90;;;;;;;;;;5059528;27;90071;-73
2023/12/16 00:53:24;;;;;;;3.33;2.00;;;;;;;;;;5060369;27;88628;-73
2023/12/16 00:55:53;;;;;;;2.90;1.47;;;;;;;;;;5060684;27;87656;-73
2023/12/16 00:58:23;;;;;;;3.13;1.77;;;;;;;;;;5060376;27;89594;-73
2023/12/16 01:00:52;;;;;;;2.10;1.90;;;;;;;;;;5060646;27;89096;-72
2023/12/16 01:03:20;;;;;;;2.43;1.70;;;;;;;;;;5059674;27;88819;-72
2023/12/16 01:05:49;;;;;;;3.17;1.50;;;;;;;;;;5059939;27;87619;-72
2023/12/16 01:08:18;;;;;;;2.90;1.80;;;;;;;;;;5059672;27;89752;-72
2023/12/16 01:10:49;;;;;;;3.07;1.30;;;;;;;;;;5060638;27;89459;-72
2023/12/16 01:13:17;;;;;;;2.90;1.73;;;;;;;;;;5059441;27;88761;-72
2023/12/16 01:15:47;;;;;;;1.40;1.13;;;;;;;;;;5059746;27;88066;-72
2023/12/16 01:18:16;;;;;;;3.60;1.60;;;;;;;;;;5060202;27;89701;-72
2023/12/16 01:20:45;;;;;;;3.10;1.67;;;;;;;;;;5059105;27;89042;-72
2023/12/16 01:23:13;;;;;;;1.90;1.80;;;;;;;;;;5059826;27;88917;-74
2023/12/16 01:25:41;;;;;;;3.63;1.20;;;;;;;;;;5060640;27;87618;-72
2023/12/16 01:28:10;;;;;;;2.30;1.47;;;;;;;;;;5059748;27;89618;-72
2023/12/16 01:30:38;;;;;;;2.83;1.60;;;;;;;;;;5059531;27;89213;-73
2023/12/16 01:33:08;;;;;;;2.23;1.63;;;;;;;;;;5059718;27;88988;-73
2023/12/16 01:35:37;;;;;;;1.93;1.43;;;;;;;;;;5060065;27;87322;-73
2023/12/16 01:38:05;;;;;;;3.70;1.40;;;;;;;;;;5060144;27;89689;-73
2023/12/16 01:40:33;;;;;;;2.60;1.20;;;;;;;;;;5060160;27;90225;-72
2023/12/16 01:43:04;;;;;;;1.50;1.33;;;;;;;;;;5059856;27;89917;-73
2023/12/16 01:45:33;;;;;;;2.50;0.97;;;;;;;;;;5060134;27;87351;-73
2023/12/16 01:48:03;;;;;;;4.47;1.50;;;;;;;;;;5060036;27;89696;-74
2023/12/16 01:50:34;;;;;;;4.43;1.80;;;;;;;;;;5059821;27;89224;-75
2023/12/16 01:53:03;;;;;;;2.43;1.40;;;;;;;;;;5059380;27;89166;-75
2023/12/16 01:55:32;;;;;;;1.67;1.40;;;;;;;;;;5060188;27;87603;-75
2023/12/16 01:58:00;;;;;;;4.00;1.60;;;;;;;;;;5059807;27;89787;-75
2023/12/16 02:00:30;;;;;;;2.03;1.33;;;;;;;;;;5059024;27;89243;-75
2023/12/16 02:02:58;;;;;;;3.30;1.87;;;;;;;;;;5058331;27;88952;-74
2023/12/16 02:05:26;;;;;;;2.77;1.50;;;;;;;;;;5058015;27;87915;-75
2023/12/16 02:07:56;;;;;;;2.87;1.60;;;;;;;;;;5058017;27;92253;-74
2023/12/16 02:10:24;;;;;;;3.30;1.60;;;;;;;;;;5059361;27;89182;-74
2023/12/16 02:12:53;;;;;;;3.00;1.80;;;;;;;;;;5059145;27;88924;-74
2023/12/16 02:15:25;;;;;;;4.07;1.83;;;;;;;;;;5060655;27;87653;-74
2023/12/16 02:17:53;;;;;;;3.13;1.90;;;;;;;;;;5061355;27;89780;-74
2023/12/16 02:20:22;;;;;;;2.10;1.73;;;;;;;;;;5062575;27;89212;-74
2023/12/16 02:22:51;;;;;;;4.60;2.03;;;;;;;;;;5062475;27;88793;-74
2023/12/16 02:25:23;;;;;;;4.73;2.67;;;;;;;;;;5061408;27;87524;-74
2023/12/16 02:27:51;;;;;;;3.00;1.90;;;;;;;;;;5062008;27;87570;-74
2023/12/16 02:30:23;;;;;;;2.40;2.20;;;;;;;;;;5058910;27;90419;-74
2023/12/16 02:32:52;;;;;;;4.97;2.60;;;;;;;;;;5061866;27;89970;-74
2023/12/16 02:35:21;;;;;;;6.03;2.70;;;;;;;;;;5059146;27;87461;-74
2023/12/16 02:37:49;;;;;;;4.57;2.77;;;;;;;;;;5061529;27;89623;-74
2023/12/16 02:40:17;;;;;;;3.20;2.67;;;;;;;;;;5061818;27;89094;-74
2023/12/16 02:42:49;;;;;;;4.07;2.57;;;;;;;;;;5062218;27;88867;-74
2023/12/16 02:45:20;;;;;;;5.57;3.10;;;;;;;;;;5059830;27;87553;-74
2023/12/16 02:47:48;;;;;;;3.43;2.57;;;;;;;;;;5062051;27;89701;-74
2023/12/16 02:50:18;;;;;;;6.50;3.00;;;;;;;;;;5060431;27;88388;-74
2023/12/16 02:52:48;;;;;;;7.87;3.90;;;;;;;;;;5061765;27;87445;-74
2023/12/16 02:55:17;;;;;;;3.40;3.07;;;;;;;;;;5060904;27;88029;-75
2023/12/16 02:57:45;;;;;;;7.03;4.20;;;;;;;;;;5062187;27;90209;-76
2023/12/16 03:00:16;;;;;;;5.03;3.73;;;;;;;;;;5062053;27;89125;-75
2023/12/16 03:02:45;;;;;;;7.90;4.50;;;;;;;;;;5062018;27;89068;-75
2023/12/16 03:05:13;;;;;;;7.47;4.30;;;;;;;;;;5061455;27;87596;-73
2023/12/16 03:07:42;;;;;;;9.27;4.50;;;;;;;;;;5060532;27;90754;-74
2023/12/16 03:10:10;;;;;;;8.63;4.67;;;;;;;;;;5060568;27;89078;-74
2023/12/16 03:12:39;;;;;;;8.03;5.10;;;;;;;;;;5061227;27;88786;-74
2023/12/16 03:15:08;;;;;;;10.67;4.97;;;;;;;;;;5061824;27;87484;-74
2023/12/16 03:17:41;;;;;;;11.37;6.17;;;;;;;;;;5060276;27;89514;-74
2023/12/16 03:20:10;;;;;;;10.53;6.20;;;;;;;;;;5060207;27;90478;-74
2023/12/16 03:22:39;;;;;;;9.47;6.30;;;;;;;;;;5060516;27;89828;-75
2023/12/16 03:25:08;;;;;;;10.40;6.63;;;;;;;;;;5058852;27;87625;-74
2023/12/16 03:27:37;;;;;;;10.77;7.30;;;;;;;;;;5060883;27;89156;-74
2023/12/16 03:30:07;;;;;;;13.33;8.57;;;;;;;;;;5060609;27;88848;-74
2023/12/16 03:32:35;;;;;;;9.40;8.17;;;;;;;;;;5060870;27;88474;-75
2023/12/16 03:35:05;;;;;;;14.27;9.13;;;;;;;;;;5060754;27;87582;-75
2023/12/16 03:37:36;;;;;;;17.07;8.57;;;;;;;;;;5060628;27;89646;-75
2023/12/16 03:40:05;;;;;;;12.90;9.13;;;;;;;;;;5059652;27;89102;-74
2023/12/16 03:42:35;;;;;;;16.90;10.27;;;;;;;;;;5060004;27;88820;-75
2023/12/16 03:45:03;;;;;;;13.13;8.97;;;;;;;;;;5059685;27;87933;-73
2023/12/16 03:47:33;;;;;;;15.83;8.73;;;;;;;;;;5060280;27;90374;-74
2023/12/16 03:50:01;;;;;;;15.63;8.77;;;;;;;;;;5060070;27;89105;-74
2023/12/16 03:52:31;;;;;;;14.90;9.30;;;;;;;;;;5059983;27;88795;-74
2023/12/16 03:54:59;;;;;;;12.50;8.50;;;;;;;;;;5061156;27;87460;-74
2023/12/16 03:57:29;;;;;;;15.97;8.63;;;;;;;;;;5060858;27;89793;-74
2023/12/16 03:59:59;;;;;;;15.03;8.87;;;;;;;;;;5060342;27;89195;-75
2023/12/16 04:02:28;;;;;;;13.63;8.10;;;;;;;;;;5051505;27;89027;-74
2023/12/16 04:04:57;;;;;;;16.00;9.57;;;;;;;;;;5060972;27;87273;-74
2023/12/16 04:07:26;;;;;;;12.87;8.50;;;;;;;;;;5059534;27;89666;-75
2023/12/16 04:09:56;;;;;;;16.13;8.73;;;;;;;;;;5060536;27;89866;-75
2023/12/16 04:12:26;;;;;;;15.37;8.63;;;;;;;;;;5059890;27;88650;-75
2023/12/16 04:14:55;;;;;;;15.43;9.40;;;;;;;;;;5061646;27;87602;-75
2023/12/16 04:17:24;;;;;;;14.03;9.40;;;;;;;;;;5060579;27;89871;-74
2023/12/16 04:19:54;;;;;;;12.23;8.10;;;;;;;;;;5061156;27;88865;-75
2023/12/16 04:22:23;;;;;;;11.10;7.20;;;;;;;;;;5061058;27;88904;-74
2023/12/16 04:24:57;;;;;;;11.70;7.10;;;;;;;;;;5064343;27;87487;-74
2023/12/16 04:27:27;;;;;;;13.57;7.93;;;;;;;;;;5050526;27;88862;-73
2023/12/16 04:29:55;;;;;;;10.30;7.80;;;;;;;;;;5060038;27;89594;-73
2023/12/16 04:32:25;;;;;;;9.60;6.57;;;;;;;;;;5059402;27;88896;-73
2023/12/16 04:34:59;;;;;;;10.40;7.03;;;;;;;;;;5059551;27;87958;-74
2023/12/16 04:37:27;;;;;;;19.27;8.37;;;;;;;;;;5060836;27;89955;-75
2023/12/16 04:39:56;;;;;;;13.87;8.80;;;;;;;;;;5061323;27;87700;-73
2023/12/16 04:42:24;;;;;;;12.13;7.70;;;;;;;;;;5059809;27;87476;-74
2023/12/16 04:44:54;;;;;;;13.50;8.23;;;;;;;;;;5061251;27;87622;-74
2023/12/16 04:47:22;;;;;;;16.23;9.50;;;;;;;;;;5059686;27;89704;-74
2023/12/16 04:49:52;;;;;;;19.97;8.67;;;;;;;;;;5060303;27;89059;-74
2023/12/16 04:52:21;;;;;;;14.90;8.43;;;;;;;;;;5060504;27;89005;-74
2023/12/16 04:54:49;;;;;;;14.50;8.40;;;;;;;;;;5060448;27;88466;-74
2023/12/16 04:57:17;;;;;;;14.23;9.23;;;;;;;;;;5059268;27;89758;-74
2023/12/16 04:59:46;;;;;;;20.30;9.93;;;;;;;;;;5059259;27;90123;-75
2023/12/16 05:02:16;;;;;;;13.77;9.43;;;;;;;;;;5060206;27;89749;-74
2023/12/16 05:04:44;;;;;;;16.10;9.20;;;;;;;;;;5061028;27;87199;-74
2023/12/16 05:07:13;;;;;;;16.77;9.07;;;;;;;;;;5060873;27;90211;-74
2023/12/16 05:09:41;;;;;;;17.60;10.27;;;;;;;;;;5059949;27;88979;-74
2023/12/16 05:12:10;;;;;;;19.37;9.93;;;;;;;;;;5059142;27;92013;-74
2023/12/16 05:14:42;;;;;;;14.67;8.67;;;;;;;;;;5060082;27;87680;-74
2023/12/16 05:17:10;;;;;;;14.87;8.87;;;;;;;;;;5060165;27;89657;-74
2023/12/16 05:19:40;;;;;;;15.93;9.10;;;;;;;;;;5059638;27;87410;-74
2023/12/16 05:22:08;;;;;;;14.50;8.70;;;;;;;;;;5059606;27;89125;-74
2023/12/16 05:24:38;;;;;;;17.13;10.57;;;;;;;;;;5059366;27;87908;-74
2023/12/16 05:27:07;;;;;;;15.43;8.23;;;;;;;;;;5058730;27;89710;-74
2023/12/16 05:29:35;;;;;;;21.40;7.93;;;;;;;;;;5060355;27;89166;-74
2023/12/16 05:32:04;;;;;;;15.07;10.07;;;;;;;;;;5060397;27;88836;-74
2023/12/16 05:34:32;;;;;;;16.57;9.00;;;;;;;;;;5059014;27;87591;-74
2023/12/16 05:37:02;;;;;;;15.87;8.23;;;;;;;;;;5059509;27;89860;-74
2023/12/16 05:39:30;;;;;;;13.70;7.93;;;;;;;;;;5059950;27;89191;-74
2023/12/16 05:41:59;;;;;;;9.30;6.97;;;;;;;;;;5060203;27;88919;-74
2023/12/16 05:44:27;;;;;;;13.43;8.30;;;;;;;;;;5062056;27;87590;-74
2023/12/16 05:46:55;;;;;;;12.60;7.40;;;;;;;;;;5063645;27;88955;-74
2023/12/16 05:49:24;;;;;;;11.90;6.53;;;;;;;;;;5055805;27;89176;-74
2023/12/16 05:51:52;;;;;;;11.20;7.03;;;;;;;;;;5062756;27;88592;-74
2023/12/16 05:54:24;;;;;;;10.77;6.23;;;;;;;;;;5063480;27;87523;-74
2023/12/16 05:56:53;;;;;;;11.80;7.27;;;;;;;;;;5063550;27;89665;-75
2023/12/16 05:59:22;;;;;;;12.27;6.83;;;;;;;;;;5063132;27;89088;-74
2023/12/16 06:01:50;;;;;;;12.23;6.67;;;;;;;;;;5062073;27;88890;-74
2023/12/16 06:04:19;;;;;;;12.50;5.50;;;;;;;;;;5061349;27;87886;-74
2023/12/16 06:06:48;;;;;;;9.70;6.00;;;;;;;;;;5061484;27;88492;-74
2023/12/16 06:09:16;;;;;;;10.33;5.57;;;;;;;;;;5061444;27;89161;-74
2023/12/16 06:11:46;;;;;;;10.83;6.27;;;;;;;;;;5061606;27;88836;-74
2023/12/16 06:14:14;;;;;;;8.67;5.67;;;;;;;;;;5061671;27;87932;-74
2023/12/16 06:16:42;;;;;;;6.70;5.30;;;;;;;;;;5062287;27;89533;-74
2023/12/16 06:19:12;;;;;;;10.90;5.70;;;;;;;;;;5062980;27;89445;-74
2023/12/16 06:21:40;;;;;;;8.47;5.83;;;;;;;;;;5063340;27;88871;-74
2023/12/16 06:24:10;;;;;;;6.27;4.47;;;;;;;;;;5063116;27;87589;-74
2023/12/16 06:26:38;;;;;;;8.93;4.70;;;;;;;;;;5061958;27;89610;-74
2023/12/16 06:29:08;;;;;;;7.30;4.53;;;;;;;;;;5061927;27;89119;-74
2023/12/16 06:31:37;;;;;;;8.20;4.80;;;;;;;;;;5062722;27;88637;-74
2023/12/16 06:34:05;;;;;;;6.07;3.60;;;;;;;;;;5062771;27;87506;-74
2023/12/16 06:36:34;;;;;;;6.17;3.93;;;;;;;;;;5062341;27;88278;-74
2023/12/16 06:39:03;;;;;;;4.63;3.63;;;;;;;;;;5061148;27;90167;-74
2023/12/16 06:41:31;;;;;;;5.93;4.13;;;;;;;;;;5062039;27;89854;-75
2023/12/16 06:44:00;;;;;;;6.90;3.80;;;;;;;;;;5062058;27;87370;-74
2023/12/16 06:46:30;;;;;;;5.67;3.60;;;;;;;;;;5058123;27;89632;-75
2023/12/16 06:49:01;;;;;;;5.67;4.10;;;;;;;;;;5058711;27;89197;-75
2023/12/16 06:51:30;;;;;;;6.27;3.87;;;;;;;;;;5058474;27;90032;-74
2023/12/16 06:53:59;;;;;;;6.00;4.10;;;;;;;;;;5059261;27;87565;-74
2023/12/16 06:56:28;;;;;;;5.07;3.87;;;;;;;;;;5056649;27;89708;-76
2023/12/16 06:58:56;;;;;;;5.53;3.90;;;;;;;;;;5059094;27;89261;-75
2023/12/16 07:01:25;;;;;;;7.07;4.23;;;;;;;;;;5059377;27;88735;-76
2023/12/16 07:03:54;;;;;;;7.60;5.37;;;;;;;;;;5059115;27;88042;-74
2023/12/16 07:06:23;;;;;;;5.93;3.83;;;;;;;;;;5058751;27;88238;-75
2023/12/16 07:08:52;;;;;;;6.03;4.30;;;;;;;;;;5058753;27;89118;-75
2023/12/16 07:11:20;;;;;;;5.13;4.00;;;;;;;;;;5058889;27;88833;-75
2023/12/16 07:13:49;;;;;;;5.00;3.40;;;;;;;;;;5059385;27;87813;-75
2023/12/16 07:16:17;;;;;;;6.73;3.63;;;;;;;;;;5058194;27;89394;-75
2023/12/16 07:18:46;;;;;;;4.97;3.47;;;;;;;;;;5058401;27;89002;-74
2023/12/16 07:21:15;;;;;;;7.27;3.27;;;;;;;;;;5058345;27;87427;-75
2023/12/16 07:23:44;;;;;;;6.93;4.30;;;;;;;;;;5059142;27;87833;-75
2023/12/16 07:26:12;;;;;;;6.57;3.07;;;;;;;;;;5058738;27;89775;-74
2023/12/16 07:28:41;;;;;;;4.80;3.40;;;;;;;;;;5057616;27;90020;-75
2023/12/16 07:31:09;;;;;;;4.77;3.03;;;;;;;;;;5057794;27;89872;-75
2023/12/16 07:33:38;;;;;;;2.50;2.30;;;;;;;;;;5058544;27;88041;-76
2023/12/16 07:36:07;;;;;;;4.23;3.43;;;;;;;;;;5058604;27;89645;-74
2023/12/16 07:38:37;;;;;;;8.17;3.57;;;;;;;;;;5057780;27;89161;-74
2023/12/16 07:41:07;;;;;;;10.03;3.27;;;;;;;;;;5058207;27;89063;-76
2023/12/16 07:43:35;;;;;;;5.43;3.13;;;;;;;;;;5058772;27;87642;-75
2023/12/16 07:46:06;;;;;;;5.70;2.63;;;;;;;;;;5058644;27;89825;-75
2023/12/16 07:48:35;;;;;;;3.90;2.23;;;;;;;;;;5058815;27;89531;-75
2023/12/16 07:51:03;;;;;;;3.73;2.57;;;;;;;;;;5057709;27;88898;-77
2023/12/16 07:53:32;;;;;;;2.83;2.00;;;;;;;;;;5058639;27;88141;-72
2023/12/16 07:56:02;;;;;;;7.47;3.13;;;;;;;;;;5059108;27;92456;-74
2023/12/16 07:58:31;;;;;;;4.27;2.20;;;;;;;;;;5057016;27;92090;-74
2023/12/16 08:00:59;;;;;;;4.70;2.80;;;;;;;;;;5057697;27;88969;-76
2023/12/16 08:03:27;;;;;;;3.23;2.20;;;;;;;;;;5058457;27;87649;-75
2023/12/16 08:05:56;;;;;;;4.37;2.53;;;;;;;;;;5058125;27;89314;-74
2023/12/16 08:08:24;;;;;;;5.20;2.60;;;;;;;;;;5054989;27;89106;-73
2023/12/16 08:10:53;;;;;;;4.07;2.90;;;;;;;;;;5057405;27;88761;-72
2023/12/16 08:13:25;;;;;;;5.67;2.97;;;;;;;;;;5055292;27;87531;-74
2023/12/16 08:15:54;;;;;;;5.60;3.43;;;;;;;;;;5057518;27;89738;-73
2023/12/16 08:18:25;;;;;;;4.83;2.43;;;;;;;;;;5057357;27;88809;-76
2023/12/16 08:20:53;;;;;;;4.40;2.67;;;;;;;;;;5057110;27;89841;-74
2023/12/16 08:23:22;;;;;;;4.73;2.67;;;;;;;;;;5057509;27;87623;-75
2023/12/16 08:25:50;;;;;;;4.80;2.33;;;;;;;;;;5055586;27;89862;-74
2023/12/16 08:28:18;;;;;;;6.57;2.77;;;;;;;;;;5057909;27;89108;-74
2023/12/16 08:30:49;;;;;;;5.70;2.83;;;;;;;;;;5056229;27;89097;-76
2023/12/16 08:33:18;;;;;;;4.40;2.20;;;;;;;;;;5037614;28;87555;-75
2023/12/16 08:35:47;;;;;;;5.83;2.67;;;;;;;;;;5045221;27;90260;-75
2023/12/16 08:38:15;;;;;;;2.60;2.23;;;;;;;;;;5057127;27;88746;-78
2023/12/16 08:40:46;;;;;;;4.90;2.70;;;;;;;;;;5056820;27;88817;-76
2023/12/16 08:43:15;;;;;;;4.20;2.83;;;;;;;;;;5057513;27;88079;-76
2023/12/16 08:45:43;;;;;;;2.87;2.43;;;;;;;;;;5055894;27;90652;-75
2023/12/16 08:48:14;;;;;;;3.20;2.57;;;;;;;;;;5056204;27;88532;-76
2023/12/16 08:50:43;;;;;;;3.77;2.60;;;;;;;;;;5056461;27;88901;-81
2023/12/16 08:53:12;;;;;;;6.13;2.80;;;;;;;;;;5057881;27;87396;-73
2023/12/16 08:55:42;;;;;;;6.87;2.60;;;;;;;;;;5057399;27;89659;-74
2023/12/16 08:58:10;;;;;;;3.93;2.70;;;;;;;;;;5057573;27;89798;-76
2023/12/16 09:00:39;;;;;;;4.90;2.80;;;;;;;;;;5057395;27;88853;-75
2023/12/16 09:03:07;;;;;;;7.03;2.60;;;;;;;;;;5057382;27;87637;-76
2023/12/16 09:05:37;;;;;;;7.23;2.37;;;;;;;;;;5057278;27;89825;-75
2023/12/16 09:08:06;;;;;;;5.10;2.30;;;;;;;;;;5057393;27;90397;-73
2023/12/16 09:10:35;;;;;;;3.63;2.67;;;;;;;;;;5057360;27;89760;-75
2023/12/16 09:13:04;;;;;;;4.20;2.10;;;;;;;;;;5057335;27;87650;-74
2023/12/16 09:15:33;;;;;;;5.13;2.50;;;;;;;;;;5057243;27;89829;-74
2023/12/16 09:18:01;;;;;;;2.30;2.10;;;;;;;;;;5057084;27;91547;-73
2023/12/16 09:20:31;;;;;;;3.20;2.30;;;;;;;;;;5059861;27;88820;-73
2023/12/16 09:23:02;;;;;;;5.63;2.50;;;;;;;;;;5060783;27;88055;-74
2023/12/16 09:25:31;;;;;;;7.83;2.70;;;;;;;;;;5059989;27;89675;-73
2023/12/16 09:27:59;;;;;;;2.40;2.20;;;;;;;;;;5060883;27;89958;-72
2023/12/16 09:30:28;;;;;;;2.97;2.27;;;;;;;;;;5059612;27;88850;-75
2023/12/16 09:32:56;;;;;;;4.87;2.83;;;;;;;;;;5048566;27;88455;-75
2023/12/16 09:35:25;;;;;;;3.87;2.57;;;;;;;;;;5061283;27;89947;-75
2023/12/16 09:37:53;;;;;;;5.07;2.87;;;;;;;;;;5060386;27;91847;-75
2023/12/16 09:40:23;;;;;;;6.47;2.57;;;;;;;;;;5065347;27;89185;-74
2023/12/16 09:42:54;;;;;;;4.67;3.00;;;;;;;;;;5070827;27;87516;-74
2023/12/16 09:45:24;;;;;;;4.37;3.33;;;;;;;;;;5064504;27;90562;-76
2023/12/16 09:47:53;;;;;;;4.60;3.07;;;;;;;;;;5059976;27;89071;-76
2023/12/16 09:50:21;;;;;;;5.37;3.30;;;;;;;;;;5060326;27;87853;-75
2023/12/16 09:52:49;;;;;;;6.27;3.30;;;;;;;;;;5059061;27;87607;-74
2023/12/16 09:55:18;;;;;;;4.33;3.43;;;;;;;;;;5059781;27;89646;-74
2023/12/16 09:57:48;;;;;;;6.40;3.57;;;;;;;;;;5059470;27;90421;-73
2023/12/16 10:00:17;;;;;;;4.33;3.13;;;;;;;;;;5060285;27;90102;-74
2023/12/16 10:02:47;;;;;;;5.40;3.33;;;;;;;;;;5059184;27;88379;-74
2023/12/16 10:05:18;;;;;;;11.90;3.60;;;;;;;;;;5060202;27;89629;-75
2023/12/16 10:07:46;;;;;;;5.03;3.67;;;;;;;;;;5058973;27;89161;-75
2023/12/16 10:10:15;;;;;;;6.10;3.87;;;;;;;;;;5059984;27;88934;-75
2023/12/16 10:12:43;;;;;;;5.03;3.63;;;;;;;;;;5060305;27;87674;-75
2023/12/16 10:15:13;;;;;;;5.83;4.27;;;;;;;;;;5060248;27;91984;-75
2023/12/16 10:17:41;;;;;;;8.43;4.40;;;;;;;;;;5059219;27;91458;-72
2023/12/16 10:20:11;;;;;;;9.60;4.30;;;;;;;;;;5039851;28;88918;-76
2023/12/16 10:22:40;;;;;;;8.00;5.20;;;;;;;;;;5055077;27;87923;-73
2023/12/16 10:25:08;;;;;;;6.60;5.27;;;;;;;;;;5060101;27;89789;-75
2023/12/16 10:27:37;;;;;;;10.90;5.50;;;;;;;;;;5059919;27;89368;-75
2023/12/16 10:30:06;;;;;;;7.93;4.97;;;;;;;;;;5059263;27;88769;-75
2023/12/16 10:32:40;;;;;;;6.87;5.37;;;;;;;;;;5058786;27;87958;-76
2023/12/16 10:35:09;;;;;;;9.93;6.50;;;;;;;;;;5059835;27;90541;-75
2023/12/16 10:37:39;;;;;;;8.47;5.37;;;;;;;;;;5059075;27;89048;-74
2023/12/16 10:40:11;;;;;;;9.17;6.10;;;;;;;;;;5058296;27;88876;-75
2023/12/16 10:42:39;;;;;;;8.30;6.00;;;;;;;;;;5059327;27;87998;-75
2023/12/16 10:45:09;;;;;;;9.97;6.43;;;;;;;;;;5059450;27;89368;-76
2023/12/16 10:47:37;;;;;;;15.00;7.60;;;;;;;;;;5058971;27;90180;-76
2023/12/16 10:50:07;;;;;;;13.43;7.73;;;;;;;;;;5059280;27;90257;-75
2023/12/16 10:52:37;;;;;;;16.60;8.07;;;;;;;;;;5058729;27;87980;-76
2023/12/16 10:55:06;;;;;;;12.23;7.70;;;;;;;;;;5057605;27;89524;-77
2023/12/16 10:57:37;;;;;;;12.67;8.00;;;;;;;;;;5058801;27;88171;-73
2023/12/16 11:00:07;;;;;;;12.23;8.43;;;;;;;;;;5057882;27;89130;-75
2023/12/16 11:02:38;;;;;;;10.33;7.87;;;;;;;;;;5059795;27;87639;-73
2023/12/16 11:05:08;;;;;;;12.40;8.07;;;;;;;;;;5059536;27;89248;-73
2023/12/16 11:07:39;;;;;;;14.17;8.50;;;;;;;;;;5058787;27;89715;-73
2023/12/16 11:10:09;;;;;;;15.77;9.10;;;;;;;;;;5059159;27;88987;-74
2023/12/16 11:12:38;;;;;;;14.73;8.63;;;;;;;;;;5059096;27;88363;-74
2023/12/16 11:15:07;;;;;;;17.17;7.50;;;;;;;;;;5059079;27;89568;-77
2023/12/16 11:17:37;;;;;;;11.73;7.70;;;;;;;;;;5059263;27;88405;-75
2023/12/16 11:20:07;;;;;;;11.80;8.33;;;;;;;;;;5058899;27;88763;-75
2023/12/16 11:22:41;;;;;;;13.13;8.57;;;;;;;;;;5058898;27;87498;-75
2023/12/16 11:25:11;;;;;;;11.17;8.17;;;;;;;;;;5058877;27;88948;-74
2023/12/16 11:27:40;;;;;;;15.10;8.33;;;;;;;;;;5059266;27;88214;-75
2023/12/16 11:30:09;;;;;;;10.57;7.87;;;;;;;;;;5058391;27;88648;-76
2023/12/16 11:32:38;;;;;;;12.63;8.07;;;;;;;;;;5058915;27;87420;-75
2023/12/16 11:35:07;;;;;;;11.07;7.60;;;;;;;;;;5059287;27;88458;-77
2023/12/16 11:37:46;;;;;;;12.80;8.17;;;;;;;;;;5058473;27;90292;-77
2023/12/16 11:40:33;;;;;;;9.40;7.77;;;;;;;;;;5059212;27;89937;-76
2023/12/16 11:43:03;;;;;;;12.30;7.40;;;;;;;;;;5073950;27;87641;-76
2023/12/16 11:45:37;;;;;;;10.23;6.47;;;;;;;;;;5079640;27;91315;-76
2023/12/16 11:48:05;;;;;;;12.37;6.93;;;;;;;;;;5077148;27;89106;-76
2023/12/16 11:50:37;;;;;;;14.87;7.87;;;;;;;;;;5058052;27;89234;-78
2023/12/16 11:53:08;;;;;;;12.13;7.43;;;;;;;;;;5058506;27;89227;-71
2023/12/16 11:55:36;;;;;;;8.57;6.57;;;;;;;;;;5057984;27;89785;-75
2023/12/16 11:58:05;;;;;;;11.00;7.30;;;;;;;;;;5058367;27;89014;-73
2023/12/16 12:00:34;;;;;;;9.90;6.47;;;;;;;;;;5057957;27;88826;-74
2023/12/16 12:03:03;;;;;;;9.30;6.20;;;;;;;;;;5058176;27;88108;-75
2023/12/16 12:05:36;;;;;;;10.93;6.43;;;;;;;;;;5058474;27;89763;-74
2023/12/16 12:08:06;;;;;;;9.17;6.37;;;;;;;;;;5058601;27;89432;-73
2023/12/16 12:10:35;;;;;;;7.90;5.73;;;;;;;;;;5057929;27;88912;-73
2023/12/16 12:13:04;;;;;;;8.23;6.13;;;;;;;;;;5058173;27;87720;-74
2023/12/16 12:15:33;;;;;;;12.50;6.80;;;;;;;;;;5057953;27;89815;-73
2023/12/16 12:18:02;;;;;;;11.27;6.57;;;;;;;;;;5058101;27;89727;-73
2023/12/16 12:20:30;;;;;;;11.17;5.53;;;;;;;;;;5057575;27;89105;-72
2023/12/16 12:22:59;;;;;;;6.87;6.17;;;;;;;;;;5058085;27;87659;-74
2023/12/16 12:25:33;;;;;;;10.50;6.90;;;;;;;;;;5057511;27;89851;-75
2023/12/16 12:28:02;;;;;;;11.50;7.00;;;;;;;;;;5057318;27;89374;-76
2023/12/16 12:30:30;;;;;;;8.00;6.17;;;;;;;;;;5058245;27;89908;-76
2023/12/16 12:32:59;;;;;;;9.90;6.70;;;;;;;;;;5057371;27;87550;-76
2023/12/16 12:35:27;;;;;;;7.80;5.67;;;;;;;;;;5058300;27;89922;-75
2023/12/16 12:37:57;;;;;;;13.00;6.93;;;;;;;;;;5056999;27;89187;-73
2023/12/16 12:40:26;;;;;;;8.37;5.70;;;;;;;;;;5057695;27;87780;-74
2023/12/16 12:42:56;;;;;;;10.87;6.53;;;;;;;;;;5063731;27;90412;-74
2023/12/16 12:45:25;;;;;;;11.80;7.40;;;;;;;;;;5078431;27;89693;-76
2023/12/16 12:47:53;;;;;;;8.80;6.27;;;;;;;;;;5078346;27;88936;-76
2023/12/16 12:50:23;;;;;;;7.90;6.37;;;;;;;;;;5077353;27;87577;-76
2023/12/16 12:52:51;;;;;;;10.93;6.93;;;;;;;;;;5058254;27;87901;-76
2023/12/16 12:55:43;;;;;;;9.80;6.43;;;;;;;;;;5057199;27;91789;-76
2023/12/16 12:58:13;;;;;;;11.57;7.07;;;;;;;;;;5057211;27;87794;-77
2023/12/16 13:00:52;;;;;;;11.10;6.57;;;;;;;;;;5057113;27;88956;-76
2023/12/16 13:03:21;;;;;;;8.93;6.70;;;;;;;;;;5058883;27;87576;-76
2023/12/16 13:05:50;;;;;;;11.17;7.17;;;;;;;;;;5057683;27;88910;-76
2023/12/16 13:08:18;;;;;;;10.60;7.27;;;;;;;;;;5057841;27;89144;-77
2023/12/16 13:10:48;;;;;;;13.93;7.63;;;;;;;;;;5056393;27;88907;-77
2023/12/16 13:13:19;;;;;;;11.50;7.07;;;;;;;;;;5057316;27;87322;-76
2023/12/16 13:15:48;;;;;;;11.90;7.00;;;;;;;;;;5057639;27;89721;-76
2023/12/16 13:18:24;;;;;;;12.50;6.50;;;;;;;;;;5057178;27;90497;-76
2023/12/16 13:20:55;;;;;;;10.77;7.07;;;;;;;;;;5057383;27;90117;-76
2023/12/16 13:23:24;;;;;;;10.53;6.83;;;;;;;;;;5057333;27;87792;-76
2023/12/16 13:25:53;;;;;;;8.07;6.33;;;;;;;;;;5056860;27;89673;-76
2023/12/16 13:28:24;;;;;;;9.97;6.07;;;;;;;;;;5057590;27;91345;-75
2023/12/16 13:30:53;;;;;;;10.93;6.10;;;;;;;;;;5057153;27;88890;-76
2023/12/16 13:33:24;;;;;;;8.67;5.97;;;;;;;;;;5056006;27;87550;-76
2023/12/16 13:35:52;;;;;;;15.10;6.17;;;;;;;;;;5057577;27;88528;-76
2023/12/16 13:38:21;;;;;;;13.17;7.07;;;;;;;;;;5057071;27;89142;-75
2023/12/16 13:40:51;;;;;;;8.83;5.77;;;;;;;;;;5056186;27;88651;-75
2023/12/16 13:43:20;;;;;;;8.40;6.53;;;;;;;;;;5057213;27;89308;-76
2023/12/16 13:45:51;;;;;;;9.10;5.90;;;;;;;;;;5055552;27;89926;-76
2023/12/16 13:48:19;;;;;;;9.03;5.50;;;;;;;;;;5057159;27;89175;-76
2023/12/16 13:50:49;;;;;;;8.67;5.80;;;;;;;;;;5056054;27;88987;-76
2023/12/16 13:53:17;;;;;;;9.03;5.53;;;;;;;;;;5056073;27;87700;-76
2023/12/16 13:55:46;;;;;;;9.30;5.87;;;;;;;;;;5056355;27;89715;-76
2023/12/16 13:58:14;;;;;;;10.67;6.10;;;;;;;;;;5055975;27;89151;-75
2023/12/16 14:00:42;;;;;;;9.13;6.27;;;;;;;;;;5056251;27;88932;-75
2023/12/16 14:03:12;;;;;;;7.37;5.93;;;;;;;;;;5056980;27;87653;-76
2023/12/16 14:05:42;;;;;;;12.87;6.40;;;;;;;;;;5058862;27;87559;-76
2023/12/16 14:08:11;;;;;;;7.73;4.90;;;;;;;;;;5059540;27;90149;-76
2023/12/16 14:10:40;;;;;;;10.47;6.37;;;;;;;;;;5059998;27;89763;-76
2023/12/16 14:13:08;;;;;;;8.63;6.30;;;;;;;;;;5042904;27;87368;-76
2023/12/16 14:15:36;;;;;;;9.30;6.43;;;;;;;;;;5039539;28;89621;-76
2023/12/16 14:18:05;;;;;;;7.67;5.90;;;;;;;;;;5054627;27;89201;-76
2023/12/16 14:20:35;;;;;;;10.70;6.07;;;;;;;;;;5060539;27;89079;-76
2023/12/16 14:23:03;;;;;;;10.53;6.17;;;;;;;;;;5061145;27;88689;-76
2023/12/16 14:25:31;;;;;;;10.63;6.17;;;;;;;;;;5059639;27;89545;-75
2023/12/16 14:28:01;;;;;;;9.60;6.20;;;;;;;;;;5060113;27;89198;-76
2023/12/16 14:30:30;;;;;;;7.60;5.60;;;;;;;;;;5057806;27;88332;-77
2023/12/16 14:32:58;;;;;;;5.83;5.03;;;;;;;;;;5059163;27;88260;-76
2023/12/16 14:35:27;;;;;;;9.47;6.50;;;;;;;;;;5060098;27;89625;-76
2023/12/16 14:37:57;;;;;;;9.57;6.57;;;;;;;;;;5059044;27;89114;-77
2023/12/16 14:40:25;;;;;;;11.33;6.20;;;;;;;;;;5059900;27;88744;-77
2023/12/16 14:42:54;;;;;;;8.77;5.17;;;;;;;;;;5059199;27;87633;-77
2023/12/16 14:45:22;;;;;;;8.13;5.60;;;;;;;;;;5059001;27;92574;-78
2023/12/16 14:47:51;;;;;;;13.03;6.20;;;;;;;;;;5059917;27;89123;-77
2023/12/16 14:50:19;;;;;;;7.70;5.33;;;;;;;;;;5059652;27;89180;-77